createdAt,value
2017-08-05T00:01:07.143Z,21.05
2017-08-05T00:03:35.900Z,21.09
2017-08-05T00:06:03.601Z,21.13
2017-08-05T00:08:31.338Z,21.16
2017-08-05T00:10:59.121Z,21.15
2017-08-05T00:13:26.847Z,21.12
2017-08-05T00:15:54.593Z,21.09
2017-08-05T00:18:22.364Z,20.98
2017-08-05T00:20:50.061Z,21.01
2017-08-05T00:23:17.847Z,21.13
2017-08-05T00:25:45.557Z,21.14
2017-08-05T00:28:13.325Z,20.98
2017-08-05T00:30:41.059Z,21.03
2017-08-05T00:33:08.739Z,21.04
2017-08-05T00:35:36.547Z,21.11
2017-08-05T00:38:04.313Z,21.15
2017-08-05T00:40:32.036Z,21.08
2017-08-05T00:42:59.883Z,21.06
2017-08-05T00:45:27.657Z,21.05
2017-08-05T00:47:55.390Z,21.05
2017-08-05T00:50:23.106Z,21.03
2017-08-05T00:52:50.861Z,20.97
2017-08-05T00:55:18.622Z,20.95
2017-08-05T00:57:46.397Z,20.97
2017-08-05T01:00:14.155Z,20.91
2017-08-05T01:02:41.930Z,20.97
2017-08-05T01:05:09.726Z,20.96
2017-08-05T01:07:37.513Z,20.87
2017-08-05T01:10:05.304Z,20.90
2017-08-05T01:12:33.025Z,20.92
2017-08-05T01:15:00.838Z,20.95
2017-08-05T01:17:28.562Z,20.88
2017-08-05T01:19:56.332Z,20.87
2017-08-05T01:22:24.111Z,20.90
2017-08-05T01:24:51.849Z,20.94
2017-08-05T01:27:19.716Z,20.89
2017-08-05T01:29:47.474Z,20.88
2017-08-05T01:32:15.203Z,20.91
2017-08-05T01:34:43.486Z,20.91
2017-08-05T01:37:11.222Z,20.88
2017-08-05T01:39:39.013Z,20.86
2017-08-05T01:42:06.719Z,20.80
2017-08-05T01:44:34.433Z,20.87
2017-08-05T01:47:02.205Z,20.88
2017-08-05T01:49:29.922Z,20.92
2017-08-05T01:51:57.706Z,20.95
2017-08-05T01:54:25.451Z,20.80
2017-08-05T01:56:53.177Z,20.66
2017-08-05T01:59:20.992Z,20.69
2017-08-05T02:01:48.714Z,20.72
2017-08-05T02:04:16.425Z,20.77
2017-08-05T02:06:44.158Z,20.78
2017-08-05T02:09:11.891Z,20.82
2017-08-05T02:11:39.676Z,20.80
2017-08-05T02:14:07.421Z,20.80
2017-08-05T02:16:35.179Z,20.80
2017-08-05T02:19:02.892Z,20.79
2017-08-05T02:21:30.652Z,20.78
2017-08-05T02:23:58.351Z,20.76
2017-08-05T02:26:26.135Z,20.72
2017-08-05T02:28:53.869Z,20.75
2017-08-05T02:31:21.564Z,20.71
2017-08-05T02:33:49.297Z,20.62
2017-08-05T02:36:17.108Z,20.68
2017-08-05T02:38:45.009Z,20.63
2017-08-05T02:41:12.725Z,20.70
2017-08-05T02:43:40.418Z,20.73
2017-08-05T02:46:08.277Z,20.73
2017-08-05T02:48:36.044Z,20.73
2017-08-05T02:51:03.780Z,20.74
2017-08-05T02:53:31.468Z,20.63
2017-08-05T02:55:59.235Z,20.52
2017-08-05T02:58:30.708Z,20.48
2017-08-05T03:00:58.414Z,20.42
2017-08-05T03:03:26.217Z,20.58
2017-08-05T03:05:53.996Z,20.61
2017-08-05T03:08:21.739Z,20.64
2017-08-05T03:10:49.409Z,20.67
2017-08-05T03:13:17.137Z,20.64
2017-08-05T03:15:44.844Z,20.66
2017-08-05T03:20:46.315Z,20.64
2017-08-05T03:23:14.093Z,20.62
2017-08-05T03:25:41.787Z,20.59
2017-08-05T03:28:09.609Z,20.53
2017-08-05T03:30:37.403Z,20.55
2017-08-05T03:33:05.158Z,20.55
2017-08-05T03:35:32.911Z,20.61
2017-08-05T03:38:00.777Z,20.68
2017-08-05T03:40:28.462Z,20.63
2017-08-05T03:42:56.153Z,20.61
2017-08-05T03:45:23.930Z,20.56
2017-08-05T03:47:51.676Z,20.53
2017-08-05T03:50:19.462Z,20.43
2017-08-05T03:52:47.192Z,20.41
2017-08-05T03:55:14.976Z,20.53
2017-08-05T03:57:42.763Z,20.45
2017-08-05T04:00:10.485Z,20.40
2017-08-05T04:02:38.173Z,20.50
2017-08-05T04:05:05.913Z,20.49
2017-08-05T04:07:33.652Z,20.48
2017-08-05T04:10:01.421Z,20.45
2017-08-05T04:12:29.212Z,20.50
2017-08-05T04:14:56.913Z,20.61
2017-08-05T04:17:24.714Z,20.52
2017-08-05T04:19:52.473Z,20.55
2017-08-05T04:22:20.545Z,20.50
2017-08-05T04:24:48.644Z,20.49
2017-08-05T04:27:16.512Z,20.47
2017-08-05T04:29:44.580Z,20.49
2017-08-05T04:32:12.490Z,20.52
2017-08-05T04:34:40.484Z,20.53
2017-08-05T04:37:08.244Z,20.58
2017-08-05T04:39:35.941Z,20.58
2017-08-05T04:42:03.895Z,20.50
2017-08-05T04:44:31.591Z,20.51
2017-08-05T04:46:59.318Z,20.47
2017-08-05T04:49:27.065Z,20.41
2017-08-05T04:51:54.765Z,20.33
2017-08-05T04:54:22.497Z,20.39
2017-08-05T04:56:50.378Z,20.44
2017-08-05T04:59:18.071Z,20.49
2017-08-05T05:01:45.877Z,20.52
2017-08-05T05:04:14.083Z,20.56
2017-08-05T05:06:41.796Z,20.59
2017-08-05T05:09:09.582Z,20.60
2017-08-05T05:11:37.316Z,20.62
2017-08-05T05:14:05.170Z,20.68
2017-08-05T05:16:32.889Z,20.70
2017-08-05T05:19:00.613Z,20.74
2017-08-05T05:21:28.324Z,20.71
2017-08-05T05:23:56.098Z,20.72
2017-08-05T05:26:25.122Z,20.72
2017-08-05T05:28:52.887Z,20.74
2017-08-05T05:31:20.959Z,20.84
2017-08-05T05:33:48.693Z,20.75
2017-08-05T05:36:16.466Z,20.65
2017-08-05T05:38:44.229Z,20.61
2017-08-05T05:41:11.925Z,20.64
2017-08-05T05:43:39.692Z,20.70
2017-08-05T05:46:07.502Z,20.74
2017-08-05T05:48:35.207Z,20.77
2017-08-05T05:51:02.952Z,20.85
2017-08-05T05:53:31.505Z,20.89
2017-08-05T05:55:59.222Z,21.00
2017-08-05T05:58:27.003Z,21.04
2017-08-05T06:00:54.714Z,21.10
2017-08-05T06:03:22.550Z,21.08
2017-08-05T06:05:50.286Z,21.21
2017-08-05T06:08:18.000Z,21.29
2017-08-05T06:10:45.761Z,21.30
2017-08-05T06:13:13.465Z,21.27
2017-08-05T06:15:41.209Z,21.28
2017-08-05T06:18:08.928Z,21.26
2017-08-05T06:20:36.729Z,21.30
2017-08-05T06:23:04.525Z,21.23
2017-08-05T06:25:32.267Z,21.23
2017-08-05T06:28:00.031Z,21.19
2017-08-05T06:30:27.838Z,21.20
2017-08-05T06:32:55.764Z,21.19
2017-08-05T06:35:23.480Z,21.19
2017-08-05T06:37:51.184Z,21.19
2017-08-05T06:40:18.945Z,21.22
2017-08-05T06:42:46.760Z,21.24
2017-08-05T06:45:14.614Z,21.23
2017-08-05T06:47:42.485Z,21.16
2017-08-05T06:50:11.141Z,21.19
2017-08-05T06:52:38.909Z,21.21
2017-08-05T06:55:06.703Z,21.19
2017-08-05T06:57:34.492Z,21.13
2017-08-05T07:00:02.261Z,21.04
2017-08-05T07:02:30.011Z,21.02
2017-08-05T07:04:57.722Z,21.14
2017-08-05T07:07:25.641Z,21.18
2017-08-05T07:09:53.702Z,21.19
2017-08-05T07:12:21.457Z,21.23
2017-08-05T07:14:49.359Z,21.20
2017-08-05T07:17:17.141Z,21.17
2017-08-05T07:19:44.978Z,21.17
2017-08-05T07:22:12.697Z,21.14
2017-08-05T07:24:41.225Z,21.16
2017-08-05T07:27:09.005Z,21.07
2017-08-05T07:29:36.736Z,21.05
2017-08-05T07:32:04.530Z,21.20
2017-08-05T07:34:32.257Z,21.19
2017-08-05T07:37:00.075Z,21.11
2017-08-05T07:39:27.792Z,21.10
2017-08-05T07:41:55.826Z,21.19
2017-08-05T07:44:23.538Z,21.29
2017-08-05T07:46:51.304Z,21.25
2017-08-05T07:49:19.055Z,21.28
2017-08-05T07:51:46.785Z,21.41
2017-08-05T07:54:14.548Z,21.55
2017-08-05T07:56:42.273Z,21.52
2017-08-05T07:59:10.028Z,21.52
2017-08-05T08:01:37.771Z,21.55
2017-08-05T08:04:07.113Z,21.69
2017-08-05T08:06:35.082Z,21.76
2017-08-05T08:09:02.897Z,21.64
2017-08-05T08:11:30.617Z,21.65
2017-08-05T08:13:58.432Z,21.70
2017-08-05T08:16:26.159Z,21.92
2017-08-05T08:18:54.199Z,22.06
2017-08-05T08:21:21.968Z,22.08
2017-08-05T08:23:49.782Z,22.30
2017-08-05T08:26:17.551Z,22.52
2017-08-05T08:28:45.229Z,22.68
2017-08-05T08:31:13.012Z,22.83
2017-08-05T08:33:40.697Z,23.22
2017-08-05T08:36:08.464Z,23.50
2017-08-05T08:38:37.363Z,24.01
2017-08-05T08:41:05.202Z,24.54
2017-08-05T08:43:32.890Z,24.57
2017-08-05T08:46:00.733Z,24.52
2017-08-05T08:48:28.538Z,24.23
2017-08-05T08:50:56.291Z,24.94
2017-08-05T08:53:24.171Z,24.60
2017-08-05T08:55:51.949Z,24.44
2017-08-05T08:58:19.665Z,24.13
2017-08-05T09:00:47.437Z,24.74
2017-08-05T09:03:15.240Z,24.61
2017-08-05T09:05:43.057Z,24.58
2017-08-05T09:08:10.819Z,25.02
2017-08-05T09:10:39.667Z,24.66
2017-08-05T09:13:07.417Z,24.81
2017-08-05T09:15:35.221Z,25.00
2017-08-05T09:18:03.241Z,24.80
2017-08-05T09:20:30.934Z,24.46
2017-08-05T09:22:59.454Z,25.11
2017-08-05T09:25:27.418Z,25.39
2017-08-05T09:27:55.165Z,25.23
2017-08-05T09:30:22.906Z,25.60
2017-08-05T09:32:50.678Z,25.82
2017-08-05T09:35:18.359Z,25.87
2017-08-05T09:37:46.075Z,26.03
2017-08-05T09:40:13.832Z,26.08
2017-08-05T09:42:41.645Z,25.66
2017-08-05T09:45:09.404Z,25.58
2017-08-05T09:47:39.043Z,25.27
2017-08-05T09:50:06.865Z,25.22
2017-08-05T09:52:34.573Z,25.32
2017-08-05T09:55:02.502Z,25.14
2017-08-05T09:57:30.255Z,25.25
2017-08-05T09:59:58.364Z,25.39
2017-08-05T10:02:26.080Z,25.22
2017-08-05T10:04:54.030Z,25.01
2017-08-05T10:07:21.765Z,25.12
2017-08-05T10:09:49.564Z,25.45
2017-08-05T10:12:17.318Z,25.52
2017-08-05T10:14:45.050Z,25.62
2017-08-05T10:17:13.131Z,25.21
2017-08-05T10:19:40.876Z,25.31
2017-08-05T10:22:08.586Z,25.58
2017-08-05T10:24:36.444Z,25.65
2017-08-05T10:27:04.185Z,25.84
2017-08-05T10:29:32.031Z,26.03
2017-08-05T10:32:00.737Z,25.93
2017-08-05T10:34:28.445Z,26.21
2017-08-05T10:36:56.270Z,26.16
2017-08-05T10:39:24.088Z,26.08
2017-08-05T10:41:51.803Z,25.87
2017-08-05T10:44:19.673Z,25.96
2017-08-05T10:46:47.858Z,25.81
2017-08-05T10:49:15.678Z,25.95
2017-08-05T10:51:43.492Z,25.86
2017-08-05T10:54:11.290Z,25.82
2017-08-05T10:56:39.038Z,25.77
2017-08-05T10:59:07.991Z,25.98
2017-08-05T11:01:35.672Z,26.16
2017-08-05T11:04:03.441Z,26.66
2017-08-05T11:06:32.199Z,26.77
2017-08-05T11:08:59.995Z,27.05
2017-08-05T11:11:27.782Z,27.47
2017-08-05T11:13:57.900Z,27.54
2017-08-05T11:16:26.410Z,27.55
2017-08-05T11:18:55.325Z,27.57
2017-08-05T11:21:23.060Z,27.75
2017-08-05T11:23:50.825Z,27.90
2017-08-05T11:26:18.617Z,27.64
2017-08-05T11:28:46.411Z,27.66
2017-08-05T11:31:14.189Z,27.77
2017-08-05T11:33:41.912Z,28.02
2017-08-05T11:36:09.623Z,27.88
2017-08-05T11:38:38.675Z,27.27
2017-08-05T11:41:06.427Z,27.82
2017-08-05T11:43:34.132Z,27.87
2017-08-05T11:46:01.913Z,27.68
2017-08-05T11:48:29.681Z,27.60
2017-08-05T11:50:57.477Z,27.57
2017-08-05T11:53:26.480Z,27.32
2017-08-05T11:55:54.259Z,27.43
2017-08-05T11:58:22.407Z,27.39
2017-08-05T12:00:51.313Z,27.44
2017-08-05T12:03:19.394Z,27.96
2017-08-05T12:05:47.203Z,27.79
2017-08-05T12:08:14.962Z,27.85
2017-08-05T12:10:43.754Z,28.15
2017-08-05T12:13:12.293Z,27.81
2017-08-05T12:15:40.607Z,27.52
2017-08-05T12:18:08.408Z,27.64
2017-08-05T12:20:36.163Z,27.60
2017-08-05T12:23:03.972Z,27.69
2017-08-05T12:25:31.690Z,27.73
2017-08-05T12:27:59.437Z,27.74
2017-08-05T12:30:27.211Z,27.55
2017-08-05T12:32:54.923Z,27.89
2017-08-05T12:35:22.629Z,28.20
2017-08-05T12:37:51.526Z,28.52
2017-08-05T12:40:19.218Z,28.12
2017-08-05T12:42:46.926Z,28.34
2017-08-05T12:45:14.698Z,28.57
2017-08-05T12:47:42.423Z,28.48
2017-08-05T12:50:10.207Z,28.51
2017-08-05T12:52:37.994Z,27.97
2017-08-05T12:55:05.771Z,27.82
2017-08-05T12:57:33.597Z,27.98
2017-08-05T13:00:01.383Z,27.87
2017-08-05T13:02:29.169Z,27.87
2017-08-05T13:04:57.800Z,28.05
2017-08-05T13:07:25.551Z,27.75
2017-08-05T13:09:53.381Z,27.89
2017-08-05T13:12:21.174Z,28.30
2017-08-05T13:14:49.879Z,28.43
2017-08-05T13:17:17.601Z,28.44
2017-08-05T13:19:45.516Z,28.68
2017-08-05T13:22:13.245Z,28.42
2017-08-05T13:24:40.946Z,28.43
2017-08-05T13:27:08.716Z,28.44
2017-08-05T13:29:36.465Z,28.83
2017-08-05T13:32:04.298Z,28.99
2017-08-05T13:34:32.065Z,29.16
2017-08-05T13:36:59.774Z,29.00
2017-08-05T13:39:27.576Z,29.06
2017-08-05T13:41:55.372Z,29.04
2017-08-05T13:44:23.828Z,29.11
2017-08-05T13:46:51.612Z,29.19
2017-08-05T13:49:19.380Z,29.29
2017-08-05T13:51:47.151Z,29.19
2017-08-05T13:54:14.921Z,29.39
2017-08-05T13:56:42.700Z,29.51
2017-08-05T13:59:10.549Z,29.55
2017-08-05T14:01:38.316Z,29.25
2017-08-05T14:04:06.064Z,29.43
2017-08-05T14:06:34.670Z,29.51
2017-08-05T14:09:02.370Z,29.51
2017-08-05T14:11:30.188Z,29.60
2017-08-05T14:13:58.751Z,29.65
2017-08-05T14:16:26.528Z,29.59
2017-08-05T14:18:54.241Z,29.69
2017-08-05T14:21:22.074Z,29.81
2017-08-05T14:23:49.877Z,29.63
2017-08-05T14:26:17.590Z,29.58
2017-08-05T14:28:45.389Z,29.01
2017-08-05T14:31:13.098Z,28.57
2017-08-05T14:33:40.904Z,28.46
2017-08-05T14:36:08.746Z,28.64
2017-08-05T14:38:38.114Z,28.54
2017-08-05T14:41:05.920Z,28.40
2017-08-05T14:43:33.733Z,28.02
2017-08-05T14:46:03.747Z,27.86
2017-08-05T14:48:32.324Z,27.75
2017-08-05T14:51:00.027Z,27.61
2017-08-05T14:53:28.855Z,27.72
2017-08-05T14:55:56.564Z,27.44
2017-08-05T14:58:25.831Z,27.35
2017-08-05T15:00:53.584Z,27.15
2017-08-05T15:03:21.364Z,27.20
2017-08-05T15:05:49.129Z,27.27
2017-08-05T15:08:16.925Z,26.97
2017-08-05T15:10:47.094Z,27.07
2017-08-05T15:13:14.931Z,27.09
2017-08-05T15:15:42.615Z,27.00
2017-08-05T15:18:10.402Z,26.95
2017-08-05T15:20:38.106Z,26.95
2017-08-05T15:23:05.811Z,26.97
2017-08-05T15:25:33.580Z,27.03
2017-08-05T15:28:01.364Z,27.02
2017-08-05T15:30:29.329Z,26.89
2017-08-05T15:32:57.208Z,26.88
2017-08-05T15:35:25.571Z,26.75
2017-08-05T15:37:53.326Z,26.63
2017-08-05T15:40:21.256Z,26.53
2017-08-05T15:42:50.132Z,26.45
2017-08-05T15:45:17.870Z,26.36
2017-08-05T15:47:45.635Z,26.39
2017-08-05T15:50:13.403Z,26.39
2017-08-05T15:52:41.117Z,26.39
2017-08-05T15:55:08.871Z,26.34
2017-08-05T15:57:36.678Z,26.30
2017-08-05T16:00:04.401Z,26.26
2017-08-05T16:02:32.205Z,26.22
2017-08-05T16:05:00.800Z,26.15
2017-08-05T16:07:28.524Z,26.10
2017-08-05T16:09:56.289Z,26.05
2017-08-05T16:12:24.770Z,25.96
2017-08-05T16:14:52.558Z,25.92
2017-08-05T16:17:20.257Z,25.81
2017-08-05T16:19:48.038Z,25.90
2017-08-05T16:22:15.862Z,25.94
2017-08-05T16:24:43.615Z,26.09
2017-08-05T16:27:11.382Z,26.10
2017-08-05T16:29:39.121Z,26.10
2017-08-05T16:32:06.888Z,26.09
2017-08-05T16:34:34.709Z,25.95
2017-08-05T16:37:02.767Z,25.98
2017-08-05T16:39:30.584Z,25.94
2017-08-05T16:41:58.327Z,25.91
2017-08-05T16:44:27.167Z,25.92
2017-08-05T16:46:54.962Z,25.77
2017-08-05T16:49:23.967Z,25.65
2017-08-05T16:51:51.744Z,25.82
2017-08-05T16:54:19.539Z,25.87
2017-08-05T16:56:47.250Z,25.86
2017-08-05T16:59:15.118Z,25.76
2017-08-05T17:01:42.924Z,25.67
2017-08-05T17:04:10.724Z,25.62
2017-08-05T17:06:39.601Z,25.41
2017-08-05T17:09:08.139Z,25.45
2017-08-05T17:11:36.002Z,25.31
2017-08-05T17:14:04.067Z,25.33
2017-08-05T17:16:33.103Z,25.27
2017-08-05T17:19:00.889Z,25.27
2017-08-05T17:21:28.675Z,25.20
2017-08-05T17:23:56.500Z,25.09
2017-08-05T17:26:24.949Z,25.09
2017-08-05T17:28:52.740Z,25.09
2017-08-05T17:31:21.193Z,25.03
2017-08-05T17:33:48.990Z,24.93
2017-08-05T17:36:16.819Z,24.84
2017-08-05T17:38:44.574Z,24.80
2017-08-05T17:41:12.292Z,24.83
2017-08-05T17:43:40.069Z,24.80
2017-08-05T17:46:07.774Z,24.74
2017-08-05T17:48:35.576Z,24.67
2017-08-05T17:51:03.331Z,24.61
2017-08-05T17:53:31.128Z,24.53
2017-08-05T17:55:58.855Z,24.53
2017-08-05T17:58:26.738Z,24.48
2017-08-05T18:00:54.597Z,24.55
2017-08-05T18:03:23.061Z,24.44
2017-08-05T18:05:50.824Z,24.33
2017-08-05T18:08:18.610Z,24.25
2017-08-05T18:10:46.347Z,24.23
2017-08-05T18:13:14.056Z,24.23
2017-08-05T18:15:41.828Z,24.12
2017-08-05T18:18:09.632Z,23.96
2017-08-05T18:20:37.331Z,23.96
2017-08-05T18:23:05.051Z,24.04
2017-08-05T18:25:33.280Z,24.09
2017-08-05T18:28:02.964Z,23.99
2017-08-05T18:30:31.265Z,23.88
2017-08-05T18:32:59.339Z,23.95
2017-08-05T18:35:28.583Z,23.88
2017-08-05T18:37:56.382Z,23.76
2017-08-05T18:40:24.191Z,23.73
2017-08-05T18:42:51.926Z,23.69
2017-08-05T18:45:19.653Z,23.74
2017-08-05T18:47:47.509Z,23.78
2017-08-05T18:50:15.243Z,23.65
2017-08-05T18:52:42.972Z,23.66
2017-08-05T18:55:12.194Z,23.75
2017-08-05T18:57:40.100Z,23.54
2017-08-05T19:00:09.270Z,23.51
2017-08-05T19:02:37.090Z,23.49
2017-08-05T19:05:04.998Z,23.52
2017-08-05T19:07:33.378Z,23.50
2017-08-05T19:10:05.151Z,23.53
2017-08-05T19:12:32.996Z,23.59
2017-08-05T19:15:00.802Z,23.51
2017-08-05T19:17:29.702Z,23.26
2017-08-05T19:19:57.814Z,23.31
2017-08-05T19:22:25.665Z,23.43
2017-08-05T19:24:53.635Z,23.58
2017-08-05T19:27:21.681Z,23.46
2017-08-05T19:29:49.759Z,23.42
2017-08-05T19:32:17.991Z,23.25
2017-08-05T19:34:46.365Z,23.36
2017-08-05T19:37:14.145Z,23.19
2017-08-05T19:39:42.017Z,23.15
2017-08-05T19:42:09.793Z,23.03
2017-08-05T19:44:37.550Z,23.09
2017-08-05T19:47:05.257Z,23.11
2017-08-05T19:49:33.127Z,22.98
2017-08-05T19:52:00.942Z,22.95
2017-08-05T19:54:28.669Z,22.93
2017-08-05T19:56:56.505Z,22.92
2017-08-05T19:59:24.287Z,22.73
2017-08-05T20:01:52.073Z,22.67
2017-08-05T20:04:19.861Z,22.78
2017-08-05T20:06:47.626Z,22.72
2017-08-05T20:09:15.359Z,22.69
2017-08-05T20:11:43.572Z,22.59
2017-08-05T20:14:11.379Z,22.69
2017-08-05T20:16:39.154Z,22.66
2017-08-05T20:19:07.750Z,22.49
2017-08-05T20:21:35.542Z,22.39
2017-08-05T20:24:03.370Z,22.45
2017-08-05T20:26:31.082Z,22.36
2017-08-05T20:28:58.870Z,22.44
2017-08-05T20:31:26.656Z,22.36
2017-08-05T20:33:55.581Z,22.45
2017-08-05T20:36:24.173Z,22.45
2017-08-05T20:38:51.955Z,22.56
2017-08-05T20:41:20.560Z,22.35
2017-08-05T20:43:48.363Z,22.59
2017-08-05T20:46:16.177Z,22.40
2017-08-05T20:48:43.947Z,22.38
2017-08-05T20:51:11.696Z,22.30
2017-08-05T20:53:39.515Z,22.04
2017-08-05T20:56:07.288Z,22.12
2017-08-05T20:58:34.999Z,22.10
2017-08-05T21:01:02.748Z,22.14
2017-08-05T21:03:30.451Z,21.93
2017-08-05T21:05:58.160Z,21.91
2017-08-05T21:08:26.094Z,21.89
2017-08-05T21:10:53.877Z,21.94
2017-08-05T21:13:21.624Z,22.02
2017-08-05T21:15:49.424Z,21.80
2017-08-05T21:18:17.264Z,21.68
2017-08-05T21:20:44.992Z,21.60
2017-08-05T21:23:12.695Z,21.53
2017-08-05T21:25:40.473Z,21.50
2017-08-05T21:28:08.228Z,21.43
2017-08-05T21:30:35.940Z,21.55
2017-08-05T21:33:03.730Z,21.63
2017-08-05T21:35:31.439Z,21.63
2017-08-05T21:37:59.170Z,21.61
2017-08-05T21:40:26.958Z,21.69
2017-08-05T21:42:54.727Z,21.63
2017-08-05T21:45:22.525Z,21.68
2017-08-05T21:47:50.268Z,21.62
2017-08-05T21:50:18.044Z,21.56
2017-08-05T21:52:45.865Z,21.54
2017-08-05T21:55:13.603Z,21.53
2017-08-05T21:57:41.341Z,21.29
2017-08-05T22:00:09.106Z,21.25
2017-08-05T22:02:36.815Z,21.28
2017-08-05T22:05:04.584Z,21.35
2017-08-05T22:07:32.287Z,21.23
2017-08-05T22:10:00.093Z,21.30
2017-08-05T22:12:27.773Z,21.23
2017-08-05T22:14:55.459Z,21.28
2017-08-05T22:17:23.213Z,21.25
2017-08-05T22:19:50.931Z,21.19
2017-08-05T22:22:18.760Z,21.16
2017-08-05T22:24:46.486Z,21.25
2017-08-05T22:27:14.200Z,21.36
2017-08-05T22:29:41.990Z,21.21
2017-08-05T22:32:09.693Z,21.22
2017-08-05T22:34:37.458Z,21.30
2017-08-05T22:37:05.170Z,21.20
2017-08-05T22:39:33.102Z,21.13
2017-08-05T22:42:00.806Z,21.15
2017-08-05T22:44:28.523Z,21.19
2017-08-05T22:46:56.305Z,21.20
2017-08-05T22:49:24.019Z,21.07
2017-08-05T22:51:51.808Z,20.96
2017-08-05T22:54:19.578Z,20.97
2017-08-05T22:56:47.282Z,20.92
2017-08-05T22:59:15.035Z,20.94
2017-08-05T23:01:42.839Z,20.94
2017-08-05T23:04:10.576Z,20.87
2017-08-05T23:06:38.281Z,20.68
2017-08-05T23:09:06.125Z,20.80
2017-08-05T23:11:33.924Z,20.84
2017-08-05T23:14:01.695Z,20.85
2017-08-05T23:16:29.409Z,20.85
2017-08-05T23:18:57.117Z,20.81
2017-08-05T23:21:24.819Z,20.92
2017-08-05T23:23:52.547Z,20.80
2017-08-05T23:26:20.272Z,20.67
2017-08-05T23:28:47.969Z,20.60
2017-08-05T23:31:15.710Z,20.61
2017-08-05T23:33:43.402Z,20.69
2017-08-05T23:36:11.071Z,20.63
2017-08-05T23:38:38.901Z,20.69
2017-08-05T23:41:06.869Z,20.53
2017-08-05T23:43:34.666Z,20.61
2017-08-05T23:46:02.441Z,20.64
2017-08-05T23:48:30.183Z,20.61
2017-08-05T23:50:57.912Z,20.41
2017-08-05T23:53:25.634Z,20.50
2017-08-05T23:55:53.365Z,20.57
2017-08-05T23:58:21.128Z,20.64
